createdAt,value
2023-01-17T00:00:11.883Z,98733.42
2023-01-17T00:03:23.443Z,98735.77
2023-01-17T00:06:52.141Z,98729.20
2023-01-17T00:10:07.508Z,98730.58
2023-01-17T00:13:18.921Z,98730.38
2023-01-17T00:16:30.039Z,98727.30
2023-01-17T00:20:20.753Z,98723.45
2023-01-17T00:23:52.066Z,98721.17
2023-01-17T00:27:14.456Z,98721.41
2023-01-17T00:30:24.365Z,98723.54
2023-01-17T00:33:35.035Z,98724.29
2023-01-17T00:36:44.691Z,98720.94
2023-01-17T00:39:54.327Z,98717.85
2023-01-17T00:43:23.693Z,98718.36
2023-01-17T00:46:52.742Z,98711.81
2023-01-17T00:50:21.373Z,98709.86
2023-01-17T00:53:49.712Z,98709.77
2023-01-17T00:57:19.261Z,98713.39
2023-01-17T01:00:47.913Z,98716.39
2023-01-17T01:04:16.537Z,98719.83
2023-01-17T01:07:44.890Z,98715.72
2023-01-17T01:11:13.205Z,98713.64
2023-01-17T01:14:41.660Z,98707.61
2023-01-17T01:18:10.309Z,98704.86
2023-01-17T01:21:38.633Z,98705.98
2023-01-17T01:25:07.307Z,98705.62
2023-01-17T01:28:35.645Z,98701.84
2023-01-17T01:32:04.134Z,98703.88
2023-01-17T01:35:15.369Z,98703.64
2023-01-17T01:38:28.738Z,98710.09
2023-01-17T01:41:39.214Z,98712.70
2023-01-17T01:44:51.429Z,98711.36
2023-01-17T01:48:05.408Z,98707.90
2023-01-17T01:51:45.789Z,98701.77
2023-01-17T01:54:59.255Z,98702.92
2023-01-17T01:58:14.489Z,98702.02
2023-01-17T02:01:26.314Z,98704.73
2023-01-17T02:04:39.249Z,98707.92
2023-01-17T02:07:53.058Z,98713.05
2023-01-17T02:11:05.011Z,98714.29
2023-01-17T02:14:18.079Z,98719.59
2023-01-17T02:18:17.914Z,98721.89
2023-01-17T02:21:32.796Z,98724.48
2023-01-17T02:25:08.153Z,98727.03
2023-01-17T02:28:30.037Z,98730.55
2023-01-17T02:39:43.390Z,98729.08
2023-01-17T02:42:57.103Z,98730.14
2023-01-17T02:46:09.763Z,98725.20
2023-01-17T02:49:22.294Z,98725.61
2023-01-17T02:52:45.213Z,98728.34
2023-01-17T02:56:34.650Z,98733.48
2023-01-17T02:59:49.927Z,98733.05
2023-01-17T03:03:05.764Z,98730.92
2023-01-17T03:06:19.884Z,98733.10
2023-01-17T03:09:32.551Z,98731.77
2023-01-17T03:12:43.589Z,98726.09
2023-01-17T03:15:54.453Z,98731.12
2023-01-17T03:19:05.775Z,98731.00
2023-01-17T03:22:16.695Z,98727.41
2023-01-17T03:25:27.733Z,98725.89
2023-01-17T03:28:39.196Z,98724.27
2023-01-17T03:31:50.143Z,98720.81
2023-01-17T03:35:01.176Z,98721.36
2023-01-17T03:38:12.171Z,98721.10
2023-01-17T03:41:23.423Z,98719.59
2023-01-17T03:44:34.397Z,98722.19
2023-01-17T03:47:45.164Z,98719.40
2023-01-17T03:50:56.542Z,98714.46
2023-01-17T03:54:07.706Z,98714.91
2023-01-17T03:57:18.775Z,98719.03
2023-01-17T04:00:29.996Z,98722.00
2023-01-17T04:03:43.010Z,98722.73
2023-01-17T04:06:59.306Z,98721.23
2023-01-17T04:10:11.068Z,98725.45
2023-01-17T04:13:22.814Z,98731.95
2023-01-17T04:16:34.823Z,98732.72
2023-01-17T04:19:45.979Z,98734.52
2023-01-17T04:22:57.309Z,98734.75
2023-01-17T04:26:08.284Z,98733.42
2023-01-17T04:29:19.258Z,98734.17
2023-01-17T04:32:30.213Z,98740.38
2023-01-17T04:35:41.173Z,98744.64
2023-01-17T04:38:52.123Z,98746.32
2023-01-17T04:42:03.287Z,98746.80
2023-01-17T04:45:16.078Z,98742.89
2023-01-17T04:48:27.421Z,98742.17
2023-01-17T04:51:38.890Z,98745.42
2023-01-17T04:54:49.813Z,98751.77
2023-01-17T04:58:00.639Z,98747.96
2023-01-17T05:01:12.279Z,98746.23
2023-01-17T05:04:24.104Z,98754.84
2023-01-17T05:11:23.431Z,98761.96
2023-01-17T05:14:34.708Z,98765.44
2023-01-17T05:17:38.042Z,98762.94
2023-01-17T05:20:49.289Z,98762.35
2023-01-17T05:24:22.990Z,98761.82
2023-01-17T05:27:34.784Z,98761.27
2023-01-17T05:33:53.448Z,98755.13
2023-01-17T05:36:43.935Z,98749.00
2023-01-17T05:39:37.629Z,98752.14
2023-01-17T05:42:28.674Z,98752.05
2023-01-17T05:45:22.148Z,98747.48
2023-01-17T05:48:12.724Z,98750.02
2023-01-17T05:51:04.631Z,98751.82
2023-01-17T05:53:55.205Z,98752.42
2023-01-17T05:56:46.586Z,98759.10
2023-01-17T05:59:37.703Z,98761.16
2023-01-17T06:02:28.474Z,98762.20
2023-01-17T06:05:19.007Z,98766.83
2023-01-17T06:08:14.200Z,98766.48
2023-01-17T06:11:04.759Z,98770.33
2023-01-17T06:13:56.679Z,98771.71
2023-01-17T06:16:49.998Z,98777.76
2023-01-17T06:19:45.579Z,98780.30
2023-01-17T06:22:36.152Z,98780.73
2023-01-17T06:25:26.799Z,98778.45
2023-01-17T06:28:19.337Z,98780.11
2023-01-17T06:31:10.373Z,98779.83
2023-01-17T06:34:02.754Z,98783.67
2023-01-17T06:36:54.654Z,98784.08
2023-01-17T06:39:45.017Z,98786.30
2023-01-17T06:42:35.685Z,98787.53
2023-01-17T06:45:27.365Z,98785.38
2023-01-17T06:48:18.056Z,98784.85
2023-01-17T06:51:08.802Z,98793.78
2023-01-17T06:53:59.399Z,98799.02
2023-01-17T06:56:49.920Z,98806.70
2023-01-17T06:59:42.976Z,98801.92
2023-01-17T07:03:07.977Z,98804.65
2023-01-17T07:05:58.611Z,98806.32
2023-01-17T07:08:55.829Z,98813.02
2023-01-17T07:11:46.417Z,98818.30
2023-01-17T07:14:36.952Z,98820.19
2023-01-17T07:17:27.349Z,98822.54
2023-01-17T07:24:28.708Z,98835.14
2023-01-17T07:27:51.977Z,98840.27
2023-01-17T07:30:43.015Z,98836.11
2023-01-17T07:33:50.725Z,98837.98
2023-01-17T07:37:08.844Z,98844.25
2023-01-17T07:40:02.669Z,98847.28
2023-01-17T07:43:20.655Z,98852.44
2023-01-17T07:46:11.710Z,98855.70
2023-01-17T07:49:03.835Z,98853.23
2023-01-17T07:51:55.497Z,98858.81
2023-01-17T08:03:35.279Z,98872.71
2023-01-17T08:11:04.544Z,98881.76
2023-01-17T08:14:50.771Z,98880.11
2023-01-17T08:17:41.206Z,98887.31
2023-01-17T08:20:58.743Z,98889.31
2023-01-17T08:23:50.810Z,98901.52
2023-01-17T08:40:37.612Z,98902.44
2023-01-17T08:43:28.683Z,98907.44
2023-01-17T08:46:47.074Z,98909.33
2023-01-17T08:49:37.605Z,98907.42
2023-01-17T08:52:29.272Z,98905.15
2023-01-17T08:55:23.290Z,98913.63
2023-01-17T08:58:14.017Z,98916.52
2023-01-17T09:01:05.476Z,98917.54
2023-01-17T09:03:56.279Z,98920.14
2023-01-17T09:06:48.626Z,98919.85
2023-01-17T09:09:39.211Z,98921.52
2023-01-17T09:12:32.656Z,98928.13
2023-01-17T09:15:23.156Z,98931.30
2023-01-17T09:18:13.687Z,98935.25
2023-01-17T09:24:47.985Z,98960.92
2023-01-17T09:27:38.644Z,98967.25
2023-01-17T09:30:29.100Z,98962.77
2023-01-17T09:33:19.841Z,98967.67
2023-01-17T09:36:10.474Z,98972.11
2023-01-17T09:39:01.004Z,98974.91
2023-01-17T09:41:56.536Z,98977.51
2023-01-17T09:44:48.352Z,98986.73
2023-01-17T09:47:42.712Z,98983.84
2023-01-17T09:50:34.660Z,98980.36
2023-01-17T09:53:25.224Z,98984.39
2023-01-17T09:56:17.280Z,98986.84
2023-01-17T09:59:11.663Z,98993.52
2023-01-17T10:05:24.043Z,98996.56
2023-01-17T10:09:04.838Z,99006.23
2023-01-17T10:17:10.357Z,99013.05
2023-01-17T10:28:47.167Z,99027.97
2023-01-17T10:39:17.259Z,99024.51
2023-01-17T10:42:18.325Z,99032.90
2023-01-17T10:45:46.813Z,99040.80
2023-01-17T10:48:40.031Z,99043.15
2023-01-17T10:51:43.261Z,99044.36
2023-01-17T10:54:50.005Z,99037.29
2023-01-17T10:57:42.348Z,99039.55
2023-01-17T11:00:45.614Z,99044.30
2023-01-17T11:03:36.751Z,99046.38
2023-01-17T11:06:28.526Z,99047.25
2023-01-17T11:09:19.119Z,99048.09
2023-01-17T11:16:02.406Z,99044.00
2023-01-17T11:19:15.590Z,99047.05
2023-01-17T11:22:07.572Z,99046.63
2023-01-17T11:24:58.483Z,99048.73
2023-01-17T11:28:15.574Z,99048.77
2023-01-17T11:31:08.184Z,99044.20
2023-01-17T11:34:09.688Z,99043.94
2023-01-17T11:37:19.580Z,99047.71
2023-01-17T11:44:36.188Z,99047.17
2023-01-17T11:47:26.891Z,99045.97
2023-01-17T11:50:26.048Z,99046.55
2023-01-17T11:53:21.176Z,99046.30
2023-01-17T11:56:13.295Z,99032.23
2023-01-17T11:59:20.026Z,99014.48
2023-01-17T12:02:38.985Z,98997.52
2023-01-17T12:05:39.824Z,98986.95
2023-01-17T12:08:44.076Z,98979.78
2023-01-17T12:11:37.915Z,98978.33
2023-01-17T12:14:34.402Z,98974.16
2023-01-17T12:17:46.024Z,98968.54
2023-01-17T12:20:41.557Z,98961.56
2023-01-17T12:23:44.854Z,98960.98
2023-01-17T12:26:41.501Z,98961.45
2023-01-17T12:29:45.023Z,98972.39
2023-01-17T12:33:07.863Z,98980.87
2023-01-17T12:36:00.106Z,98984.66
2023-01-17T12:38:50.519Z,98989.41
2023-01-17T12:41:50.108Z,98996.46
2023-01-17T12:44:46.729Z,99002.50
2023-01-17T12:47:41.761Z,99004.86
2023-01-17T12:50:35.131Z,99001.26
2023-01-17T12:53:28.769Z,99000.14
2023-01-17T12:56:22.713Z,98994.41
2023-01-17T12:59:16.989Z,98997.63
2023-01-17T13:02:36.143Z,98991.92
2023-01-17T13:05:28.976Z,99001.05
2023-01-17T13:08:25.040Z,99002.90
2023-01-17T13:11:21.425Z,99007.16
2023-01-17T13:14:12.054Z,99008.73
2023-01-17T13:17:04.081Z,99007.52
2023-01-17T13:19:58.989Z,99002.96
2023-01-17T13:22:50.789Z,98997.45
2023-01-17T13:25:43.655Z,98994.09
2023-01-17T13:28:45.161Z,98995.04
2023-01-17T13:32:00.116Z,98999.91
2023-01-17T13:35:09.099Z,98998.27
2023-01-17T13:38:10.790Z,99000.63
2023-01-17T13:41:04.988Z,99011.83
2023-01-17T13:44:09.300Z,99017.69
2023-01-17T13:47:04.394Z,99021.06
2023-01-17T13:49:56.769Z,99025.46
2023-01-17T13:52:47.302Z,99031.52
2023-01-17T13:55:47.214Z,99038.15
2023-01-17T13:58:54.596Z,99038.33
2023-01-17T14:01:52.361Z,99042.69
2023-01-17T14:05:00.171Z,99044.19
2023-01-17T14:07:55.903Z,99047.17
2023-01-17T14:10:48.601Z,99044.11
2023-01-17T14:13:40.126Z,99035.11
2023-01-17T14:16:31.556Z,99038.33
2023-01-17T14:19:27.922Z,99040.45
2023-01-17T14:22:24.416Z,99044.65
2023-01-17T14:25:17.643Z,99044.79
2023-01-17T14:28:21.137Z,99048.30
2023-01-17T14:31:14.177Z,99048.70
2023-01-17T14:34:14.259Z,99047.38
2023-01-17T14:37:30.192Z,99047.73
2023-01-17T14:40:22.050Z,99049.79
2023-01-17T14:43:13.610Z,99052.28
2023-01-17T14:46:05.853Z,99054.91
2023-01-17T14:49:02.607Z,99054.70
2023-01-17T14:52:03.405Z,99051.92
2023-01-17T14:54:54.017Z,99048.02
2023-01-17T14:57:44.594Z,99045.20
2023-01-17T15:00:40.795Z,99045.02
2023-01-17T15:03:33.505Z,99040.45
2023-01-17T15:06:25.227Z,99043.45
2023-01-17T15:09:18.938Z,99044.30
2023-01-17T15:12:13.665Z,99044.91
2023-01-17T15:15:03.840Z,99048.41
2023-01-17T15:18:42.661Z,99050.67
2023-01-17T15:21:37.017Z,99063.87
2023-01-17T15:24:29.638Z,99065.46
2023-01-17T15:27:20.609Z,99071.02
2023-01-17T15:30:15.954Z,99070.54
2023-01-17T15:33:07.353Z,99067.70
2023-01-17T15:36:10.439Z,99066.58
2023-01-17T15:39:02.229Z,99067.55
2023-01-17T15:41:55.064Z,99067.27
2023-01-17T15:44:48.856Z,99069.94
2023-01-17T15:48:19.866Z,99073.61
2023-01-17T15:51:11.184Z,99075.80
2023-01-17T15:54:31.181Z,99073.65
2023-01-17T15:57:31.194Z,99071.64
2023-01-17T16:00:26.596Z,99072.55
2023-01-17T16:03:21.839Z,99070.98
2023-01-17T16:06:29.550Z,99068.91
2023-01-17T16:09:25.056Z,99072.94
2023-01-17T16:12:15.329Z,99075.24
2023-01-17T16:15:12.839Z,99069.91
2023-01-17T16:18:19.162Z,99075.77
2023-01-17T16:21:58.522Z,99076.81
2023-01-17T16:24:48.982Z,99079.59
2023-01-17T16:27:41.626Z,99082.80
2023-01-17T16:30:32.647Z,99089.20
2023-01-17T16:33:23.155Z,99088.42
2023-01-17T16:36:16.607Z,99092.61
2023-01-17T16:39:07.147Z,99099.83
2023-01-17T16:42:00.553Z,99099.67
2023-01-17T16:44:51.097Z,99100.45
2023-01-17T16:47:42.883Z,99102.06
2023-01-17T16:50:33.292Z,99110.61
2023-01-17T16:53:25.357Z,99117.71
2023-01-17T16:56:17.068Z,99124.43
2023-01-17T16:59:07.746Z,99133.83
2023-01-17T17:02:01.401Z,99132.85
2023-01-17T17:04:51.622Z,99136.44
2023-01-17T17:07:44.290Z,99135.15
2023-01-17T17:10:34.931Z,99135.85
2023-01-17T17:13:25.432Z,99138.55
2023-01-17T17:16:17.755Z,99144.48
2023-01-17T17:19:09.183Z,99149.25
2023-01-17T17:22:01.729Z,99141.48
2023-01-17T17:24:52.374Z,99144.66
2023-01-17T17:27:42.934Z,99143.46
2023-01-17T17:30:33.511Z,99140.41
2023-01-17T17:33:24.114Z,99140.81
2023-01-17T17:36:14.497Z,99150.27
2023-01-17T17:39:06.928Z,99152.77
2023-01-17T17:41:57.582Z,99159.31
2023-01-17T17:44:48.509Z,99157.14
2023-01-17T17:47:39.085Z,99163.33
2023-01-17T17:50:29.676Z,99165.30
2023-01-17T17:53:21.845Z,99168.05
2023-01-17T17:56:12.301Z,99167.70
2023-01-17T17:59:03.383Z,99168.37
2023-01-17T18:01:54.364Z,99167.57
2023-01-17T18:04:44.806Z,99171.80
2023-01-17T18:07:35.544Z,99172.13
2023-01-17T18:10:26.042Z,99183.05
2023-01-17T18:13:16.522Z,99181.59
2023-01-17T18:16:08.637Z,99183.19
2023-01-17T18:18:59.729Z,99186.70
2023-01-17T18:21:51.570Z,99201.08
2023-01-17T18:24:44.944Z,99206.29
2023-01-17T18:27:35.747Z,99209.32
2023-01-17T18:30:26.387Z,99212.58
2023-01-17T18:33:18.920Z,99212.73
2023-01-17T18:36:12.770Z,99211.80
2023-01-17T18:39:04.049Z,99215.83
2023-01-17T18:41:54.722Z,99216.82
2023-01-17T18:44:45.103Z,99215.16
2023-01-17T18:47:37.955Z,99211.50
2023-01-17T18:50:28.784Z,99215.75
2023-01-17T18:53:19.344Z,99216.95
2023-01-17T18:56:13.745Z,99213.84
2023-01-17T18:59:05.944Z,99207.66
2023-01-17T19:01:56.352Z,99209.17
2023-01-17T19:04:46.858Z,99213.50
2023-01-17T19:07:39.379Z,99214.00
2023-01-17T19:10:29.961Z,99219.48
2023-01-17T19:13:20.526Z,99220.95
2023-01-17T19:16:14.406Z,99223.55
2023-01-17T19:19:06.461Z,99228.52
2023-01-17T19:21:57.072Z,99225.66
2023-01-17T19:24:47.644Z,99225.25
2023-01-17T19:27:38.297Z,99232.85
2023-01-17T19:30:28.813Z,99233.90
2023-01-17T19:33:19.180Z,99236.27
2023-01-17T19:36:10.597Z,99236.31
2023-01-17T19:39:05.929Z,99225.27
2023-01-17T19:42:31.220Z,99222.60
2023-01-17T19:45:21.906Z,99223.75
2023-01-17T19:48:14.701Z,99226.40
2023-01-17T19:51:10.586Z,99224.96
2023-01-17T19:54:01.896Z,99221.31
2023-01-17T19:56:52.495Z,99218.63
2023-01-17T19:59:42.932Z,99218.96
2023-01-17T20:02:36.255Z,99216.60
2023-01-17T20:05:26.715Z,99219.60
2023-01-17T20:08:17.223Z,99223.41
2023-01-17T20:11:09.276Z,99224.66
2023-01-17T20:14:00.402Z,99224.71
2023-01-17T20:16:51.606Z,99223.61
2023-01-17T20:19:42.112Z,99221.59
2023-01-17T20:22:32.641Z,99220.21
2023-01-17T20:25:23.306Z,99223.39
2023-01-17T20:28:13.856Z,99221.17
2023-01-17T20:31:09.006Z,99218.45
2023-01-17T20:34:00.317Z,99216.31
2023-01-17T20:36:50.928Z,99209.14
2023-01-17T20:39:41.420Z,99209.35
2023-01-17T20:42:31.927Z,99209.80
2023-01-17T20:45:22.903Z,99208.75
2023-01-17T20:48:17.270Z,99204.27
2023-01-17T20:51:10.708Z,99217.08
2023-01-17T20:54:03.490Z,99216.73
2023-01-17T20:56:55.529Z,99219.77
2023-01-17T20:59:48.481Z,99220.54
2023-01-17T21:02:38.994Z,99221.20
2023-01-17T21:05:29.856Z,99227.98
2023-01-17T21:08:20.413Z,99220.48
2023-01-17T21:11:12.527Z,99223.54
2023-01-17T21:14:03.118Z,99217.59
2023-01-17T21:16:53.675Z,99216.25
2023-01-17T21:19:44.323Z,99217.04
2023-01-17T21:22:35.321Z,99215.38
2023-01-17T21:25:26.856Z,99214.56
2023-01-17T21:28:17.210Z,99217.09
2023-01-17T21:31:18.234Z,99226.95
2023-01-17T21:34:10.707Z,99219.28
2023-01-17T21:37:01.171Z,99215.96
2023-01-17T21:39:55.038Z,99226.27
2023-01-17T21:42:45.969Z,99226.23
2023-01-17T21:45:39.083Z,99228.86
2023-01-17T21:48:29.394Z,99228.06
2023-01-17T21:51:22.091Z,99235.16
2023-01-17T21:54:12.819Z,99241.03
2023-01-17T21:57:21.058Z,99244.73
2023-01-17T22:00:14.646Z,99250.55
2023-01-17T22:03:05.770Z,99259.64
2023-01-17T22:05:58.117Z,99270.46
2023-01-17T22:08:53.071Z,99268.45
2023-01-17T22:12:18.582Z,99267.09
2023-01-17T22:15:11.762Z,99264.63
2023-01-17T22:18:02.291Z,99265.50
2023-01-17T22:20:52.824Z,99261.66
2023-01-17T22:23:46.726Z,99263.80
2023-01-17T22:26:36.918Z,99263.98
2023-01-17T22:29:28.108Z,99273.67
2023-01-17T22:32:18.613Z,99280.69
2023-01-17T22:35:09.987Z,99279.94
2023-01-17T22:38:00.457Z,99284.18
2023-01-17T22:40:50.992Z,99289.09
2023-01-17T22:43:42.897Z,99296.36
2023-01-17T22:46:35.781Z,99296.81
2023-01-17T22:49:26.613Z,99300.66
2023-01-17T22:52:17.112Z,99305.27
2023-01-17T22:55:08.240Z,99310.00
2023-01-17T22:57:58.747Z,99307.60
2023-01-17T23:00:49.865Z,99305.35
2023-01-17T23:03:41.977Z,99297.72
2023-01-17T23:06:33.340Z,99294.66
2023-01-17T23:09:23.858Z,99287.90
2023-01-17T23:12:14.980Z,99289.73
2023-01-17T23:15:22.513Z,99285.91
2023-01-17T23:18:30.804Z,99278.46
2023-01-17T23:21:22.430Z,99270.51
2023-01-17T23:24:13.175Z,99267.77
2023-01-17T23:27:21.040Z,99260.98
2023-01-17T23:30:13.710Z,99256.25
2023-01-17T23:33:05.324Z,99252.77
2023-01-17T23:35:55.902Z,99243.78
2023-01-17T23:38:46.407Z,99247.21
2023-01-17T23:41:50.773Z,99249.02
2023-01-17T23:44:41.405Z,99252.14
2023-01-17T23:47:31.830Z,99268.56
2023-01-17T23:50:22.469Z,99276.12
2023-01-17T23:53:16.230Z,99284.65
2023-01-17T23:56:11.843Z,99288.76
2023-01-17T23:59:02.410Z,99288.80
